createdAt,value
2023-08-12T00:00:24.970Z,89.50
2023-08-12T00:02:53.160Z,89.90
2023-08-12T00:05:21.248Z,90.20
2023-08-12T00:07:50.498Z,90.00
2023-08-12T00:10:18.661Z,90.10
2023-08-12T00:12:46.646Z,90.00
2023-08-12T00:15:16.126Z,89.00
2023-08-12T00:17:44.209Z,89.50
2023-08-12T00:20:13.621Z,90.10
2023-08-12T00:22:42.294Z,90.30
2023-08-12T00:25:10.827Z,90.20
2023-08-12T00:27:39.818Z,90.30
2023-08-12T00:30:10.100Z,90.00
2023-08-12T00:32:39.645Z,89.60
2023-08-12T00:35:08.321Z,88.30
2023-08-12T00:37:36.319Z,88.80
2023-08-12T00:40:04.686Z,88.70
2023-08-12T00:42:32.680Z,88.40
2023-08-12T00:45:00.680Z,88.70
2023-08-12T00:47:30.230Z,89.80
2023-08-12T00:50:00.567Z,90.60
2023-08-12T00:52:28.858Z,90.60
2023-08-12T00:54:57.654Z,90.90
2023-08-12T00:57:25.685Z,91.60
2023-08-12T00:59:55.525Z,91.10
2023-08-12T01:02:23.584Z,91.50
2023-08-12T01:04:51.627Z,91.30
2023-08-12T01:07:21.437Z,90.60
2023-08-12T01:09:49.701Z,90.70
2023-08-12T01:12:24.006Z,90.80
2023-08-12T01:14:58.631Z,90.60
2023-08-12T01:17:29.930Z,90.70
2023-08-12T01:19:58.904Z,91.10
2023-08-12T01:22:29.601Z,91.40
2023-08-12T01:24:58.918Z,91.60
2023-08-12T01:27:26.884Z,91.90
2023-08-12T01:29:55.022Z,92.70
2023-08-12T01:32:27.897Z,93.70
2023-08-12T01:35:03.561Z,93.80
2023-08-12T01:37:34.687Z,93.50
2023-08-12T01:40:06.438Z,93.60
2023-08-12T01:42:35.964Z,94.20
2023-08-12T01:45:04.145Z,94.60
2023-08-12T01:47:32.333Z,94.20
2023-08-12T01:50:00.716Z,94.30
2023-08-12T01:52:28.807Z,94.50
2023-08-12T01:54:57.030Z,94.40
2023-08-12T01:57:26.387Z,94.40
2023-08-12T01:59:54.529Z,94.80
2023-08-12T02:02:22.547Z,94.80
2023-08-12T02:04:50.572Z,95.60
2023-08-12T02:07:18.648Z,95.60
2023-08-12T02:09:46.676Z,95.30
2023-08-12T02:12:14.716Z,95.20
2023-08-12T02:14:44.050Z,94.90
2023-08-12T02:17:12.540Z,94.80
2023-08-12T02:19:40.784Z,94.70
2023-08-12T02:22:08.779Z,95.00
2023-08-12T02:24:36.784Z,94.80
2023-08-12T02:27:05.134Z,94.50
2023-08-12T02:29:34.160Z,94.50
2023-08-12T02:32:03.570Z,94.60
2023-08-12T02:34:31.572Z,94.80
2023-08-12T02:36:59.616Z,95.10
2023-08-12T02:39:27.657Z,95.50
2023-08-12T02:41:55.953Z,95.60
2023-08-12T02:44:24.059Z,95.90
2023-08-12T02:46:52.077Z,95.80
2023-08-12T02:49:21.414Z,95.90
2023-08-12T02:51:49.389Z,96.00
2023-08-12T02:54:17.407Z,96.00
2023-08-12T02:56:45.891Z,96.10
2023-08-12T02:59:14.033Z,95.80
2023-08-12T03:01:43.823Z,95.60
2023-08-12T03:04:12.144Z,95.70
2023-08-12T03:06:41.965Z,95.50
2023-08-12T03:09:10.105Z,95.40
2023-08-12T03:11:38.161Z,95.10
2023-08-12T03:14:06.336Z,94.80
2023-08-12T03:16:34.371Z,94.90
2023-08-12T03:19:02.334Z,94.90
2023-08-12T03:21:30.449Z,95.40
2023-08-12T03:23:59.796Z,96.00
2023-08-12T03:26:28.015Z,96.00
2023-08-12T03:28:56.030Z,95.80
2023-08-12T03:31:23.071Z,95.80
2023-08-12T03:33:51.039Z,95.90
2023-08-12T03:36:19.063Z,95.90
2023-08-12T03:38:47.075Z,96.00
2023-08-12T03:41:16.480Z,95.90
2023-08-12T03:43:44.699Z,96.30
2023-08-12T03:46:12.708Z,96.20
2023-08-12T03:48:40.747Z,96.20
2023-08-12T03:51:08.753Z,96.00
2023-08-12T03:53:36.778Z,96.20
2023-08-12T03:56:05.147Z,96.60
2023-08-12T03:58:34.635Z,96.70
2023-08-12T04:01:02.680Z,96.70
2023-08-12T04:03:30.902Z,96.70
2023-08-12T04:05:58.966Z,97.00
2023-08-12T04:08:27.192Z,96.50
2023-08-12T04:10:55.195Z,96.20
2023-08-12T04:13:23.221Z,96.10
2023-08-12T04:15:54.285Z,96.00
2023-08-12T04:18:22.624Z,96.10
2023-08-12T04:20:51.269Z,96.10
2023-08-12T04:23:19.634Z,96.40
2023-08-12T04:25:49.319Z,96.40
2023-08-12T04:28:28.628Z,96.60
2023-08-12T04:30:58.038Z,96.40
2023-08-12T04:33:26.503Z,96.20
2023-08-12T04:35:55.253Z,96.30
2023-08-12T04:38:23.994Z,96.10
2023-08-12T04:40:52.022Z,96.40
2023-08-12T04:43:20.003Z,96.20
2023-08-12T04:45:48.265Z,96.50
2023-08-12T04:48:17.701Z,96.50
2023-08-12T04:50:45.784Z,96.70
2023-08-12T04:53:13.793Z,97.40
2023-08-12T04:55:41.785Z,97.00
2023-08-12T04:58:09.811Z,97.10
2023-08-12T05:00:37.823Z,97.00
2023-08-12T05:03:06.446Z,96.90
2023-08-12T05:05:35.814Z,96.90
2023-08-12T05:08:03.900Z,96.80
2023-08-12T05:10:31.875Z,97.20
2023-08-12T05:13:00.400Z,97.40
2023-08-12T05:15:28.377Z,97.20
2023-08-12T05:17:56.350Z,97.30
2023-08-12T05:20:24.354Z,98.20
2023-08-12T05:22:53.716Z,99.10
2023-08-12T05:25:21.738Z,99.70
2023-08-12T05:27:49.819Z,99.90
2023-08-12T05:30:17.943Z,99.90
2023-08-12T05:32:45.963Z,99.90
2023-08-12T05:35:14.000Z,99.90
2023-08-12T05:37:42.019Z,99.90
2023-08-12T05:40:12.838Z,99.90
2023-08-12T05:42:40.873Z,99.90
2023-08-12T05:45:09.994Z,99.90
2023-08-12T05:47:38.139Z,99.90
2023-08-12T05:50:07.473Z,99.90
2023-08-12T05:52:35.573Z,99.90
2023-08-12T05:55:03.720Z,99.90
2023-08-12T05:57:33.871Z,99.90
2023-08-12T06:00:01.858Z,99.90
2023-08-12T06:02:29.932Z,99.90
2023-08-12T06:04:57.972Z,99.90
2023-08-12T06:07:26.084Z,99.60
2023-08-12T06:09:54.452Z,98.90
2023-08-12T06:12:22.542Z,98.80
2023-08-12T06:14:51.920Z,98.70
2023-08-12T06:17:19.945Z,99.20
2023-08-12T06:19:47.929Z,97.00
2023-08-12T06:22:15.994Z,93.20
2023-08-12T06:24:44.070Z,90.20
2023-08-12T06:27:12.096Z,81.30
2023-08-12T06:29:40.079Z,78.00
2023-08-12T06:32:09.720Z,74.60
2023-08-12T06:34:37.963Z,73.20
2023-08-12T06:37:06.115Z,71.90
2023-08-12T06:39:34.053Z,72.40
2023-08-12T06:42:02.071Z,69.80
2023-08-12T06:44:30.090Z,67.20
2023-08-12T06:46:58.109Z,67.50
2023-08-12T06:49:27.495Z,67.10
2023-08-12T06:51:55.471Z,66.20
2023-08-12T06:54:23.993Z,63.50
2023-08-12T06:56:52.141Z,60.90
2023-08-12T06:59:20.147Z,61.80
2023-08-12T07:01:48.175Z,61.00
2023-08-12T07:04:16.253Z,62.70
2023-08-12T07:06:45.576Z,64.00
2023-08-12T07:09:13.650Z,58.40
2023-08-12T07:11:42.491Z,53.60
2023-08-12T07:14:10.649Z,48.40
2023-08-12T07:16:38.622Z,42.20
2023-08-12T07:19:06.809Z,39.60
2023-08-12T07:21:34.860Z,38.40
2023-08-12T07:24:04.736Z,35.30
2023-08-12T07:26:32.882Z,30.80
2023-08-12T07:29:00.860Z,28.10
2023-08-12T07:31:29.159Z,23.30
2023-08-12T07:33:57.288Z,20.00
2023-08-12T07:36:25.301Z,21.10
2023-08-12T07:38:53.280Z,18.60
2023-08-12T07:41:22.643Z,17.80
2023-08-12T07:43:50.640Z,18.40
2023-08-12T07:46:18.733Z,16.20
2023-08-12T07:48:46.726Z,14.10
2023-08-12T07:51:14.736Z,15.10
2023-08-12T07:53:42.808Z,13.90
2023-08-12T07:56:10.908Z,12.80
2023-08-12T07:58:40.235Z,11.30
2023-08-12T08:01:10.025Z,10.30
2023-08-12T08:03:38.047Z,11.70
2023-08-12T08:06:06.068Z,12.20
2023-08-12T08:08:34.091Z,11.80
2023-08-12T08:11:02.030Z,12.90
2023-08-12T08:13:30.026Z,14.70
2023-08-12T08:15:59.370Z,13.10
2023-08-12T08:18:27.535Z,11.80
2023-08-12T08:20:55.576Z,8.90
2023-08-12T08:23:23.663Z,9.50
2023-08-12T08:25:51.692Z,9.20
2023-08-12T08:28:19.706Z,10.00
2023-08-12T08:30:47.799Z,10.90
2023-08-12T08:33:17.210Z,10.90
2023-08-12T08:35:45.272Z,10.00
2023-08-12T08:38:13.288Z,9.10
2023-08-12T08:40:41.314Z,7.60
2023-08-12T08:43:11.081Z,7.90
2023-08-12T08:45:40.154Z,7.80
2023-08-12T08:48:09.694Z,5.90
2023-08-12T08:50:39.132Z,5.40
2023-08-12T08:53:08.790Z,4.80
2023-08-12T08:55:36.809Z,4.80
2023-08-12T08:58:05.990Z,6.10
2023-08-12T09:00:34.469Z,5.10
2023-08-12T09:03:04.602Z,3.60
2023-08-12T09:05:34.685Z,2.50
2023-08-12T09:08:07.594Z,2.90
2023-08-12T09:10:38.178Z,2.40
2023-08-12T09:13:06.424Z,3.20
2023-08-12T09:15:35.024Z,3.30
2023-08-12T09:18:03.088Z,4.50
2023-08-12T09:20:31.213Z,4.50
2023-08-12T09:23:00.295Z,3.40
2023-08-12T09:25:30.847Z,3.90
2023-08-12T09:28:01.557Z,4.20
2023-08-12T09:30:32.209Z,4.10
2023-08-12T09:33:05.176Z,3.80
2023-08-12T09:35:36.226Z,4.00
2023-08-12T09:38:06.272Z,3.80
2023-08-12T09:40:36.747Z,4.10
2023-08-12T09:43:06.199Z,5.30
2023-08-12T09:45:35.556Z,6.30
2023-08-12T09:48:04.836Z,7.10
2023-08-12T09:50:32.881Z,8.10
2023-08-12T09:53:01.958Z,7.90
2023-08-12T09:55:30.457Z,7.90
2023-08-12T09:58:01.507Z,8.60
2023-08-12T10:00:29.646Z,8.30
2023-08-12T10:02:58.033Z,8.70
2023-08-12T10:05:32.545Z,8.20
2023-08-12T10:08:02.766Z,8.30
2023-08-12T10:10:32.843Z,7.00
2023-08-12T10:13:02.937Z,7.60
2023-08-12T10:15:31.391Z,7.90
2023-08-12T10:17:59.418Z,8.00
2023-08-12T10:20:28.386Z,7.70
2023-08-12T10:22:57.126Z,7.70
2023-08-12T10:25:31.522Z,7.40
2023-08-12T10:27:59.483Z,7.10
2023-08-12T10:30:32.066Z,6.10
2023-08-12T10:33:01.463Z,6.30
2023-08-12T10:35:43.431Z,5.80
2023-08-12T10:38:12.836Z,5.20
2023-08-12T10:40:40.944Z,4.70
2023-08-12T10:43:09.318Z,4.60
2023-08-12T10:45:48.347Z,3.70
2023-08-12T10:48:21.328Z,3.10
2023-08-12T10:50:51.551Z,3.20
2023-08-12T10:53:25.560Z,3.20
2023-08-12T10:55:57.539Z,2.70
2023-08-12T10:58:30.588Z,2.80
2023-08-12T11:01:00.451Z,3.00
2023-08-12T11:06:03.322Z,3.40
2023-08-12T11:08:31.291Z,2.90
2023-08-12T11:10:59.420Z,2.70
2023-08-12T11:13:29.960Z,3.00
2023-08-12T11:16:10.216Z,4.40
2023-08-12T11:18:38.875Z,3.90
2023-08-12T11:21:07.590Z,2.80
2023-08-12T11:23:37.517Z,2.80
2023-08-12T11:26:05.740Z,2.50
2023-08-12T11:28:33.811Z,4.10
2023-08-12T11:31:02.760Z,5.50
2023-08-12T11:33:32.675Z,6.00
2023-08-12T11:36:01.096Z,7.20
2023-08-12T11:38:29.306Z,9.00
2023-08-12T11:40:57.287Z,10.70
2023-08-12T11:43:25.403Z,12.60
2023-08-12T11:45:53.452Z,13.30
2023-08-12T11:48:22.659Z,13.60
2023-08-12T11:50:52.832Z,13.80
2023-08-12T11:53:21.116Z,15.00
2023-08-12T11:55:49.399Z,14.90
2023-08-12T11:58:19.849Z,16.90
2023-08-12T12:00:49.629Z,19.00
2023-08-12T12:03:18.919Z,28.40
2023-08-12T12:05:48.730Z,40.30
2023-08-12T12:08:18.461Z,36.70
2023-08-12T12:10:47.552Z,38.40
2023-08-12T12:13:15.783Z,48.10
2023-08-12T12:15:44.515Z,51.50
2023-08-12T12:18:13.781Z,47.90
2023-08-12T12:20:55.814Z,48.10
2023-08-12T12:23:29.664Z,46.10
2023-08-12T12:26:00.676Z,46.80
2023-08-12T12:28:29.127Z,48.30
2023-08-12T12:30:57.297Z,49.00
2023-08-12T12:33:25.393Z,49.40
2023-08-12T12:35:58.878Z,56.40
2023-08-12T12:38:30.136Z,60.50
2023-08-12T12:40:58.815Z,52.30
2023-08-12T12:43:26.935Z,56.30
2023-08-12T12:45:54.998Z,62.00
2023-08-12T12:48:23.070Z,68.50
2023-08-12T12:50:51.113Z,71.30
2023-08-12T12:53:19.149Z,67.00
2023-08-12T12:55:48.686Z,65.60
2023-08-12T12:58:17.376Z,63.70
2023-08-12T13:00:45.471Z,63.20
2023-08-12T13:03:13.586Z,62.50
2023-08-12T13:05:41.691Z,62.60
2023-08-12T13:08:09.720Z,62.20
2023-08-12T13:10:37.695Z,61.40
2023-08-12T13:13:07.183Z,60.20
2023-08-12T13:15:35.709Z,58.70
2023-08-12T13:18:04.103Z,56.70
2023-08-12T13:20:32.254Z,56.00
2023-08-12T13:23:00.296Z,55.90
2023-08-12T13:25:30.938Z,55.60
2023-08-12T13:27:59.916Z,53.60
2023-08-12T13:30:29.592Z,52.30
2023-08-12T13:33:01.183Z,46.30
2023-08-12T13:35:29.941Z,39.30
2023-08-12T13:37:57.931Z,35.50
2023-08-12T13:40:26.413Z,36.90
2023-08-12T13:42:54.455Z,35.80
2023-08-12T13:45:22.921Z,34.50
2023-08-12T13:47:52.436Z,35.70
2023-08-12T13:50:21.984Z,38.00
2023-08-12T13:52:51.352Z,41.30
2023-08-12T13:55:19.557Z,41.30
2023-08-12T13:57:47.538Z,42.30
2023-08-12T14:00:16.719Z,43.40
2023-08-12T14:02:45.145Z,44.00
2023-08-12T14:05:14.689Z,39.70
2023-08-12T14:07:43.115Z,42.70
2023-08-12T14:10:11.412Z,44.50
2023-08-12T14:12:39.475Z,45.80
2023-08-12T14:15:18.198Z,45.80
2023-08-12T14:17:46.356Z,47.40
2023-08-12T14:20:16.476Z,49.50
2023-08-12T14:22:45.627Z,48.70
2023-08-12T14:25:14.004Z,48.10
2023-08-12T14:27:42.084Z,48.70
2023-08-12T14:30:12.029Z,48.50
2023-08-12T14:32:40.673Z,48.80
2023-08-12T14:35:09.514Z,46.80
2023-08-12T14:37:38.920Z,45.60
2023-08-12T14:40:08.691Z,44.80
2023-08-12T14:42:36.836Z,42.70
2023-08-12T14:45:05.628Z,40.70
2023-08-12T14:47:33.721Z,38.70
2023-08-12T14:50:02.072Z,35.90
2023-08-12T14:52:30.110Z,35.20
2023-08-12T14:54:59.495Z,33.50
2023-08-12T14:57:27.544Z,31.70
2023-08-12T14:59:55.557Z,33.90
2023-08-12T15:02:24.743Z,35.00
2023-08-12T15:04:54.416Z,35.20
2023-08-12T15:07:23.129Z,36.60
2023-08-12T15:09:52.969Z,36.90
2023-08-12T15:12:22.642Z,37.90
2023-08-12T15:14:50.782Z,39.90
2023-08-12T15:17:19.061Z,39.90
2023-08-12T15:19:47.077Z,41.90
2023-08-12T15:22:15.448Z,43.40
2023-08-12T15:24:43.464Z,44.70
2023-08-12T15:27:11.811Z,45.80
2023-08-12T15:29:41.474Z,46.40
2023-08-12T15:32:09.528Z,47.60
2023-08-12T15:34:37.610Z,50.40
2023-08-12T15:37:05.930Z,53.40
2023-08-12T15:39:34.650Z,57.90
2023-08-12T15:42:03.451Z,61.60
2023-08-12T15:44:31.503Z,64.00
2023-08-12T15:47:01.029Z,63.10
2023-08-12T15:49:34.556Z,65.20
2023-08-12T15:52:03.453Z,69.00
2023-08-12T15:54:31.514Z,70.40
2023-08-12T15:56:59.553Z,74.60
2023-08-12T15:59:27.572Z,77.40
2023-08-12T16:01:56.207Z,81.50
2023-08-12T16:04:25.628Z,83.40
2023-08-12T16:06:53.677Z,85.30
2023-08-12T16:09:21.835Z,88.40
2023-08-12T16:11:50.156Z,90.20
2023-08-12T16:14:18.156Z,90.90
2023-08-12T16:16:46.143Z,91.90
2023-08-12T16:19:14.228Z,92.80
2023-08-12T16:21:43.582Z,93.90
2023-08-12T16:24:11.606Z,95.00
2023-08-12T16:26:39.601Z,95.40
2023-08-12T16:29:07.661Z,96.30
2023-08-12T16:31:36.876Z,97.00
2023-08-12T16:34:07.290Z,97.30
2023-08-12T16:36:36.942Z,97.80
2023-08-12T16:39:08.640Z,98.10
2023-08-12T16:41:36.848Z,98.10
2023-08-12T16:44:05.524Z,98.20
2023-08-12T16:46:33.754Z,98.20
2023-08-12T16:49:01.751Z,98.10
2023-08-12T16:51:30.335Z,98.10
2023-08-12T16:53:58.612Z,98.00
2023-08-12T16:56:28.115Z,98.50
2023-08-12T16:58:56.164Z,97.90
2023-08-12T17:01:27.423Z,98.20
2023-08-12T17:03:55.650Z,98.20
2023-08-12T17:06:24.183Z,98.30
2023-08-12T17:08:52.362Z,97.60
2023-08-12T17:11:23.577Z,96.90
2023-08-12T17:13:53.078Z,96.00
2023-08-12T17:16:21.235Z,95.80
2023-08-12T17:18:51.299Z,96.10
2023-08-12T17:21:19.679Z,94.70
2023-08-12T17:23:47.955Z,93.90
2023-08-12T17:26:16.007Z,92.50
2023-08-12T17:28:45.724Z,91.70
2023-08-12T17:31:16.406Z,90.90
2023-08-12T17:33:44.499Z,89.30
2023-08-12T17:36:12.494Z,86.60
2023-08-12T17:38:40.579Z,84.30
2023-08-12T17:41:08.797Z,84.30
2023-08-12T17:43:36.907Z,84.70
2023-08-12T17:46:05.637Z,85.40
2023-08-12T17:48:35.110Z,85.70
2023-08-12T17:51:04.264Z,86.20
2023-08-12T17:53:32.544Z,86.60
2023-08-12T17:56:00.594Z,86.70
2023-08-12T17:58:28.571Z,88.30
2023-08-12T18:00:57.573Z,88.00
2023-08-12T18:03:25.797Z,87.50
2023-08-12T18:05:55.717Z,88.00
2023-08-12T18:08:24.206Z,88.60
2023-08-12T18:10:52.580Z,88.70
2023-08-12T18:13:20.563Z,88.20
2023-08-12T18:15:49.458Z,88.10
2023-08-12T18:18:17.629Z,88.20
2023-08-12T18:20:45.696Z,87.80
2023-08-12T18:23:15.106Z,88.20
2023-08-12T18:25:43.087Z,88.80
2023-08-12T18:28:11.083Z,89.20
2023-08-12T18:30:39.145Z,89.00
2023-08-12T18:33:07.424Z,90.40
2023-08-12T18:35:35.527Z,91.10
2023-08-12T18:38:03.841Z,91.60
2023-08-12T18:40:33.935Z,91.90
2023-08-12T18:43:02.329Z,92.60
2023-08-12T18:45:30.438Z,92.90
2023-08-12T18:47:58.443Z,93.10
2023-08-12T18:50:26.859Z,93.50
2023-08-12T18:52:54.885Z,94.20
2023-08-12T18:55:23.008Z,94.50
2023-08-12T18:57:52.759Z,94.60
2023-08-12T19:00:21.843Z,94.70
2023-08-12T19:02:51.663Z,94.80
2023-08-12T19:05:20.006Z,95.10
2023-08-12T19:07:47.980Z,94.80
2023-08-12T19:10:16.024Z,94.60
2023-08-12T19:12:44.025Z,94.60
2023-08-12T19:15:13.444Z,95.00
2023-08-12T19:17:41.428Z,95.10
2023-08-12T19:20:11.450Z,94.30
2023-08-12T19:22:39.520Z,93.90
2023-08-12T19:25:08.004Z,92.80
2023-08-12T19:27:36.047Z,91.20
2023-08-12T19:30:04.745Z,90.70
2023-08-12T19:32:46.793Z,90.30
2023-08-12T19:35:14.965Z,89.30
2023-08-12T19:37:44.410Z,89.30
2023-08-12T19:40:13.186Z,88.10
2023-08-12T19:42:41.474Z,87.80
2023-08-12T19:45:10.266Z,87.80
2023-08-12T19:47:41.971Z,88.90
2023-08-12T19:50:12.030Z,89.50
2023-08-12T19:52:40.498Z,89.60
2023-08-12T19:55:10.054Z,88.10
2023-08-12T19:57:38.223Z,88.00
2023-08-12T20:00:09.443Z,87.80
2023-08-12T20:02:40.500Z,87.70
2023-08-12T20:05:15.215Z,87.70
2023-08-12T20:07:43.582Z,87.30
2023-08-12T20:10:12.245Z,88.70
2023-08-12T20:12:40.364Z,89.50
2023-08-12T20:15:09.362Z,89.70
2023-08-12T20:17:39.122Z,89.50
2023-08-12T20:20:12.945Z,90.50
2023-08-12T20:22:50.520Z,90.70
2023-08-12T20:25:27.795Z,90.70
2023-08-12T20:27:56.342Z,91.00
2023-08-12T20:30:24.454Z,91.50
2023-08-12T20:32:54.861Z,91.90
2023-08-12T20:35:23.156Z,91.90
2023-08-12T20:37:51.323Z,92.30
2023-08-12T20:40:19.872Z,92.30
2023-08-12T20:42:48.173Z,92.60
2023-08-12T20:45:16.394Z,92.70
2023-08-12T20:47:44.702Z,92.80
2023-08-12T20:50:15.289Z,92.70
2023-08-12T20:52:43.302Z,92.50
2023-08-12T20:55:11.341Z,92.80
2023-08-12T20:57:39.328Z,92.90
2023-08-12T21:00:08.943Z,92.90
2023-08-12T21:02:37.129Z,92.90
2023-08-12T21:05:05.647Z,93.20
2023-08-12T21:07:34.966Z,93.60
2023-08-12T21:10:03.133Z,93.80
2023-08-12T21:12:31.140Z,93.70
2023-08-12T21:14:59.092Z,93.80
2023-08-12T21:17:27.139Z,93.80
2023-08-12T21:19:55.138Z,94.10
2023-08-12T21:22:23.127Z,94.20
2023-08-12T21:24:52.624Z,94.60
2023-08-12T21:27:20.987Z,95.10
2023-08-12T21:29:49.072Z,95.60
2023-08-12T21:32:17.119Z,95.70
2023-08-12T21:34:45.132Z,95.60
2023-08-12T21:37:14.479Z,95.70
2023-08-12T21:39:42.521Z,96.30
2023-08-12T21:42:12.457Z,96.90
2023-08-12T21:44:40.633Z,97.60
2023-08-12T21:47:08.722Z,98.80
2023-08-12T21:49:36.816Z,99.70
2023-08-12T21:52:05.082Z,99.90
2023-08-12T21:54:33.125Z,99.90
2023-08-12T21:57:01.132Z,99.90
2023-08-12T21:59:30.515Z,99.90
2023-08-12T22:01:58.663Z,99.90
2023-08-12T22:04:26.694Z,99.90
2023-08-12T22:06:54.687Z,99.90
2023-08-12T22:09:22.773Z,99.90
2023-08-12T22:11:50.903Z,99.90
2023-08-12T22:14:18.903Z,99.90
2023-08-12T22:16:48.248Z,99.90
2023-08-12T22:19:16.850Z,99.90
2023-08-12T22:21:44.843Z,99.90
2023-08-12T22:24:12.794Z,99.90
2023-08-12T22:26:40.811Z,99.90
2023-08-12T22:29:08.802Z,99.90
2023-08-12T22:31:36.897Z,99.90
2023-08-12T22:34:08.506Z,99.90
2023-08-12T22:36:36.543Z,99.90
2023-08-12T22:39:05.307Z,99.90
2023-08-12T22:41:33.369Z,99.90
2023-08-12T22:44:02.406Z,99.90
2023-08-12T22:46:30.438Z,99.90
2023-08-12T22:48:58.494Z,99.90
2023-08-12T22:51:28.718Z,99.90
2023-08-12T22:53:58.744Z,99.90
2023-08-12T22:56:26.793Z,99.90
2023-08-12T22:58:56.377Z,99.90
2023-08-12T23:01:25.151Z,99.90
2023-08-12T23:03:53.191Z,99.90
2023-08-12T23:06:21.209Z,99.90
2023-08-12T23:08:50.530Z,99.90
2023-08-12T23:11:18.553Z,99.90
2023-08-12T23:13:46.641Z,99.90
2023-08-12T23:16:14.678Z,99.90
2023-08-12T23:18:42.711Z,99.90
2023-08-12T23:21:10.713Z,99.90
2023-08-12T23:23:38.835Z,99.90
2023-08-12T23:26:08.275Z,99.90
2023-08-12T23:28:36.273Z,99.90
2023-08-12T23:31:04.398Z,99.90
2023-08-12T23:33:32.462Z,99.90
2023-08-12T23:36:00.442Z,99.90
2023-08-12T23:38:28.442Z,99.90
2023-08-12T23:40:56.419Z,99.90
2023-08-12T23:43:25.874Z,99.90
2023-08-12T23:45:53.907Z,99.90
2023-08-12T23:48:22.404Z,99.90
2023-08-12T23:50:52.687Z,99.90
2023-08-12T23:53:20.830Z,99.90
2023-08-12T23:55:48.877Z,99.90
2023-08-12T23:58:16.926Z,99.90
